Time;durP1;ratioP1;P1;durP2;ratioP2;P2;SDS_P1;SDS_P2;PMS_P1;PMS_P2;Temp;Humidity;BMP_temperature;BMP_pressure;BME280_temperature;BME280_humidity;BME280_pressure;Samples;Min_cycle;Max_cycle;Signal;HPM_P1;HPM_P2
2023/07/24 00:01:08;;;;;;;3.58;1.95;;;;;;;;;;5029387;28;20609;-77
2023/07/24 00:03:35;;;;;;;3.22;2.10;;;;;;;;;;5030329;28;20080;-79
2023/07/24 00:06:04;;;;;;;3.47;2.38;;;;;;;;;;5014577;28;20048;-76
2023/07/24 00:08:31;;;;;;;6.95;2.00;;;;;;;;;;5042378;28;20045;-78
2023/07/24 00:10:58;;;;;;;3.45;2.10;;;;;;;;;;5028572;28;20432;-78
2023/07/24 00:13:25;;;;;;;3.80;2.30;;;;;;;;;;5050513;28;20048;-78
2023/07/24 00:15:51;;;;;;;4.40;2.50;;;;;;;;;;5030192;28;20041;-79
2023/07/24 00:18:18;;;;;;;4.60;2.10;;;;;;;;;;5052676;28;20041;-77
2023/07/24 00:20:44;;;;;;;3.38;2.20;;;;;;;;;;5035221;28;20037;-77
2023/07/24 00:23:11;;;;;;;4.65;2.47;;;;;;;;;;5031997;28;20037;-77
2023/07/24 00:25:38;;;;;;;4.07;2.10;;;;;;;;;;5018396;28;20063;-78
2023/07/24 00:28:04;;;;;;;4.95;2.38;;;;;;;;;;5049587;28;20041;-78
2023/07/24 00:30:34;;;;;;;4.40;2.47;;;;;;;;;;5025656;28;20048;-78
2023/07/24 00:33:03;;;;;;;4.10;2.40;;;;;;;;;;5025449;28;20045;-79
2023/07/24 00:35:30;;;;;;;4.43;2.30;;;;;;;;;;5053245;28;20048;-77
2023/07/24 00:37:58;;;;;;;6.72;2.80;;;;;;;;;;5029475;28;20132;-78
2023/07/24 00:40:25;;;;;;;6.28;2.28;;;;;;;;;;5052704;28;20116;-78
2023/07/24 00:42:51;;;;;;;4.45;2.20;;;;;;;;;;5046990;28;20049;-77
2023/07/24 00:45:19;;;;;;;5.30;2.35;;;;;;;;;;5051324;28;20041;-77
2023/07/24 00:47:46;;;;;;;9.00;3.13;;;;;;;;;;5051319;28;20056;-77
2023/07/24 00:50:13;;;;;;;4.85;2.40;;;;;;;;;;5056695;28;20044;-78
2023/07/24 00:52:40;;;;;;;8.15;2.72;;;;;;;;;;5059450;28;20131;-79
2023/07/24 00:55:07;;;;;;;4.30;2.40;;;;;;;;;;5061384;28;20057;-78
2023/07/24 00:57:34;;;;;;;6.20;2.20;;;;;;;;;;5017349;28;20076;-77
2023/07/24 01:00:00;;;;;;;3.72;2.22;;;;;;;;;;5054146;28;20065;-78
2023/07/24 01:02:27;;;;;;;4.78;2.30;;;;;;;;;;5035554;28;20041;-78
2023/07/24 01:04:54;;;;;;;6.43;2.42;;;;;;;;;;5060242;28;20557;-77
2023/07/24 01:07:21;;;;;;;5.18;2.65;;;;;;;;;;5060680;28;20050;-77
2023/07/24 01:09:50;;;;;;;4.85;2.67;;;;;;;;;;5025052;28;20061;-77
2023/07/24 01:12:22;;;;;;;4.53;2.20;;;;;;;;;;5036015;28;20392;-77
2023/07/24 01:14:55;;;;;;;4.78;2.65;;;;;;;;;;5026032;28;20045;-77
2023/07/24 01:17:24;;;;;;;4.03;2.28;;;;;;;;;;5034305;28;20050;-77
2023/07/24 01:19:55;;;;;;;3.90;2.38;;;;;;;;;;5030449;28;20052;-78
2023/07/24 01:22:34;;;;;;;4.88;2.55;;;;;;;;;;5028660;28;20061;-78
2023/07/24 01:25:20;;;;;;;5.88;2.40;;;;;;;;;;5028102;28;20038;-78
2023/07/24 01:27:48;;;;;;;6.28;2.60;;;;;;;;;;5041676;28;20041;-77
2023/07/24 01:30:17;;;;;;;5.32;2.67;;;;;;;;;;5039548;28;20499;-77
2023/07/24 01:32:47;;;;;;;3.40;2.20;;;;;;;;;;5025730;28;20132;-78
2023/07/24 01:35:15;;;;;;;8.10;2.60;;;;;;;;;;5033864;28;20047;-78
2023/07/24 01:37:43;;;;;;;4.13;2.33;;;;;;;;;;5050028;28;20059;-80
2023/07/24 01:40:10;;;;;;;4.93;2.40;;;;;;;;;;5030016;28;20041;-77
2023/07/24 01:42:37;;;;;;;6.70;2.60;;;;;;;;;;5030244;28;20503;-79
2023/07/24 01:45:04;;;;;;;4.68;2.63;;;;;;;;;;5028751;28;20136;-77
2023/07/24 01:47:31;;;;;;;5.40;2.58;;;;;;;;;;5047456;28;20130;-77
2023/07/24 01:50:01;;;;;;;6.57;2.85;;;;;;;;;;5051554;28;20067;-78
2023/07/24 01:52:30;;;;;;;6.60;2.65;;;;;;;;;;5030249;28;20059;-77
2023/07/24 01:54:57;;;;;;;4.97;2.67;;;;;;;;;;5031767;28;20114;-79
2023/07/24 01:57:24;;;;;;;4.53;2.38;;;;;;;;;;5032384;28;20044;-79
2023/07/24 01:59:50;;;;;;;4.35;2.60;;;;;;;;;;5030061;28;20068;-76
2023/07/24 02:02:17;;;;;;;4.47;2.33;;;;;;;;;;5030310;28;20099;-78
2023/07/24 02:04:45;;;;;;;5.40;2.65;;;;;;;;;;5044474;28;20497;-78
2023/07/24 02:07:12;;;;;;;6.07;2.95;;;;;;;;;;5049653;28;20045;-79
2023/07/24 02:09:39;;;;;;;6.60;2.80;;;;;;;;;;5050902;28;20411;-78
2023/07/24 02:12:06;;;;;;;5.43;2.40;;;;;;;;;;5026034;28;20052;-78
2023/07/24 02:14:32;;;;;;;4.05;2.35;;;;;;;;;;5030231;28;20080;-77
2023/07/24 02:16:59;;;;;;;4.95;2.67;;;;;;;;;;5027651;28;20045;-77
2023/07/24 02:19:27;;;;;;;5.47;3.10;;;;;;;;;;5046281;28;20132;-77
2023/07/24 02:21:54;;;;;;;5.18;2.70;;;;;;;;;;5028194;28;20148;-77
2023/07/24 02:24:20;;;;;;;6.05;2.50;;;;;;;;;;5049552;28;20053;-78
2023/07/24 02:26:47;;;;;;;4.72;2.60;;;;;;;;;;5049157;28;20040;-77
2023/07/24 02:29:13;;;;;;;6.38;2.70;;;;;;;;;;5030342;28;20693;-78
2023/07/24 02:31:42;;;;;;;6.07;2.83;;;;;;;;;;5029990;28;20053;-78
2023/07/24 02:34:09;;;;;;;8.57;2.88;;;;;;;;;;5031303;28;20068;-78
2023/07/24 02:36:36;;;;;;;5.10;2.75;;;;;;;;;;5028285;28;20041;-78
2023/07/24 02:39:04;;;;;;;4.00;2.55;;;;;;;;;;5049284;28;20091;-77
2023/07/24 02:41:31;;;;;;;4.63;2.67;;;;;;;;;;5030903;28;20435;-78
2023/07/24 02:43:57;;;;;;;6.43;2.72;;;;;;;;;;5018508;28;20119;-78
2023/07/24 02:46:24;;;;;;;8.45;2.83;;;;;;;;;;5036604;28;20045;-77
2023/07/24 02:48:52;;;;;;;7.75;2.90;;;;;;;;;;5029420;28;20044;-78
2023/07/24 02:51:21;;;;;;;6.28;2.88;;;;;;;;;;5028235;28;20048;-78
2023/07/24 02:53:48;;;;;;;3.70;2.60;;;;;;;;;;5011430;28;20492;-78
2023/07/24 02:56:23;;;;;;;8.63;3.10;;;;;;;;;;5026707;28;20049;-79
2023/07/24 02:58:50;;;;;;;5.53;2.72;;;;;;;;;;5045361;28;20048;-77
2023/07/24 03:01:16;;;;;;;5.20;2.72;;;;;;;;;;5046651;28;20045;-77
2023/07/24 03:03:43;;;;;;;5.53;2.88;;;;;;;;;;5030019;28;20073;-77
2023/07/24 03:06:10;;;;;;;4.18;2.33;;;;;;;;;;5035359;28;20130;-76
2023/07/24 03:08:37;;;;;;;4.88;2.53;;;;;;;;;;5029009;28;20106;-78
2023/07/24 03:11:07;;;;;;;4.35;2.60;;;;;;;;;;5046703;28;20128;-78
2023/07/24 03:13:37;;;;;;;5.45;3.10;;;;;;;;;;5050827;28;20597;-78
2023/07/24 03:16:03;;;;;;;4.90;2.78;;;;;;;;;;5030498;28;20053;-77
2023/07/24 03:18:30;;;;;;;5.00;2.70;;;;;;;;;;5013042;28;20116;-78
2023/07/24 03:20:57;;;;;;;4.93;2.60;;;;;;;;;;5030263;28;20045;-77
2023/07/24 03:23:24;;;;;;;6.18;2.90;;;;;;;;;;5025641;28;20060;-78
2023/07/24 03:25:50;;;;;;;6.03;3.20;;;;;;;;;;5011809;28;20129;-78
2023/07/24 03:28:18;;;;;;;5.30;2.80;;;;;;;;;;5022019;28;20041;-77
2023/07/24 03:30:45;;;;;;;6.18;2.45;;;;;;;;;;4999281;28;20087;-77
2023/07/24 03:33:12;;;;;;;4.10;2.70;;;;;;;;;;5021397;28;20053;-76
2023/07/24 03:35:39;;;;;;;4.22;2.53;;;;;;;;;;5013646;28;20508;-75
2023/07/24 03:38:05;;;;;;;4.25;2.50;;;;;;;;;;5021851;28;20053;-78
2023/07/24 03:40:32;;;;;;;6.30;2.92;;;;;;;;;;5026448;28;20037;-78
2023/07/24 03:42:59;;;;;;;5.07;2.75;;;;;;;;;;5010994;28;20059;-77
2023/07/24 03:45:28;;;;;;;4.82;2.58;;;;;;;;;;5025668;28;20064;-77
2023/07/24 03:47:54;;;;;;;6.05;3.20;;;;;;;;;;5025559;28;20736;-78
2023/07/24 03:50:21;;;;;;;5.40;2.83;;;;;;;;;;5025997;28;20136;-79
2023/07/24 03:52:47;;;;;;;5.70;2.80;;;;;;;;;;5025253;28;20057;-78
2023/07/24 03:55:14;;;;;;;5.93;2.78;;;;;;;;;;5023484;28;20111;-77
2023/07/24 03:57:41;;;;;;;4.75;2.60;;;;;;;;;;5022494;28;20087;-78
2023/07/24 04:00:07;;;;;;;4.50;2.70;;;;;;;;;;5023516;28;20076;-74
2023/07/24 04:02:40;;;;;;;6.35;2.67;;;;;;;;;;5017601;28;20590;-78
2023/07/24 04:05:06;;;;;;;8.20;3.25;;;;;;;;;;5024553;28;20078;-79
2023/07/24 04:07:33;;;;;;;8.10;2.90;;;;;;;;;;5023299;28;20137;-78
2023/07/24 04:10:00;;;;;;;5.15;2.78;;;;;;;;;;5028156;28;20060;-78
2023/07/24 04:12:28;;;;;;;6.75;2.72;;;;;;;;;;5007038;28;20734;-77
2023/07/24 04:14:54;;;;;;;6.63;3.08;;;;;;;;;;5027646;28;20092;-78
2023/07/24 04:17:21;;;;;;;5.63;2.67;;;;;;;;;;5002032;28;20451;-77
2023/07/24 04:19:48;;;;;;;8.07;3.35;;;;;;;;;;5004369;28;20443;-78
2023/07/24 04:22:14;;;;;;;6.45;3.05;;;;;;;;;;5027702;28;20041;-77
2023/07/24 04:24:41;;;;;;;6.07;3.10;;;;;;;;;;5028773;28;20393;-78
2023/07/24 04:27:07;;;;;;;7.38;3.05;;;;;;;;;;5026119;28;20132;-77
2023/07/24 04:29:34;;;;;;;4.43;2.65;;;;;;;;;;5026379;28;20129;-77
2023/07/24 04:32:00;;;;;;;5.22;2.78;;;;;;;;;;5021304;28;20041;-77
2023/07/24 04:34:27;;;;;;;6.53;3.22;;;;;;;;;;5043762;28;20568;-77
2023/07/24 04:36:56;;;;;;;5.70;2.78;;;;;;;;;;5050067;28;20050;-78
2023/07/24 04:39:23;;;;;;;4.68;2.90;;;;;;;;;;5038263;28;20064;-78
2023/07/24 04:41:50;;;;;;;6.45;3.15;;;;;;;;;;5052208;28;20239;-77
2023/07/24 04:44:17;;;;;;;6.43;3.35;;;;;;;;;;5051490;28;20462;-78
2023/07/24 04:46:43;;;;;;;5.38;3.00;;;;;;;;;;5051098;28;20110;-78
2023/07/24 04:49:10;;;;;;;5.85;2.80;;;;;;;;;;5030545;28;20124;-78
2023/07/24 04:51:36;;;;;;;5.78;2.85;;;;;;;;;;5051040;28;20072;-77
2023/07/24 04:54:03;;;;;;;4.88;2.60;;;;;;;;;;5051225;28;20132;-79
2023/07/24 04:56:29;;;;;;;5.18;3.05;;;;;;;;;;5050161;28;20105;-78
2023/07/24 04:58:56;;;;;;;10.45;3.33;;;;;;;;;;5050106;28;20515;-77
2023/07/24 05:01:23;;;;;;;9.05;3.10;;;;;;;;;;5050509;28;20056;-79
2023/07/24 05:03:52;;;;;;;5.22;3.08;;;;;;;;;;5047869;28;20041;-78
2023/07/24 05:06:19;;;;;;;5.65;3.20;;;;;;;;;;5051622;28;20052;-77
2023/07/24 05:08:45;;;;;;;5.82;3.20;;;;;;;;;;5053610;28;20068;-78
2023/07/24 05:11:12;;;;;;;7.07;3.25;;;;;;;;;;5051056;28;20410;-77
2023/07/24 05:13:39;;;;;;;5.88;3.05;;;;;;;;;;5035241;28;20132;-78
2023/07/24 05:16:05;;;;;;;6.05;3.38;;;;;;;;;;5035125;28;20052;-79
2023/07/24 05:18:32;;;;;;;6.63;3.35;;;;;;;;;;5023382;28;20418;-79
2023/07/24 05:20:59;;;;;;;5.97;3.40;;;;;;;;;;5015987;28;20080;-79
2023/07/24 05:23:28;;;;;;;7.00;3.45;;;;;;;;;;5049731;28;20057;-78
2023/07/24 05:26:06;;;;;;;6.35;3.33;;;;;;;;;;5049912;28;20053;-78
2023/07/24 05:28:39;;;;;;;7.50;3.13;;;;;;;;;;5042579;28;20053;-78
2023/07/24 05:31:06;;;;;;;6.18;3.10;;;;;;;;;;5031382;28;20105;-78
2023/07/24 05:33:32;;;;;;;5.05;3.20;;;;;;;;;;5048772;28;20053;-78
2023/07/24 05:35:59;;;;;;;6.97;3.28;;;;;;;;;;5050781;28;20102;-77
2023/07/24 05:38:26;;;;;;;6.15;3.35;;;;;;;;;;5048965;28;20041;-77
2023/07/24 05:40:59;;;;;;;5.45;3.05;;;;;;;;;;5050468;28;20521;-77
2023/07/24 05:43:26;;;;;;;5.53;3.28;;;;;;;;;;5049344;28;20538;-78
2023/07/24 05:45:53;;;;;;;9.40;3.20;;;;;;;;;;5050632;28;20108;-77
2023/07/24 05:48:20;;;;;;;6.95;3.65;;;;;;;;;;5050211;28;20055;-77
2023/07/24 05:50:47;;;;;;;7.45;3.20;;;;;;;;;;5023092;28;20690;-76
2023/07/24 05:53:19;;;;;;;5.78;3.35;;;;;;;;;;5043668;28;20507;-78
2023/07/24 05:55:45;;;;;;;5.45;3.30;;;;;;;;;;5051999;28;20041;-78
2023/07/24 05:58:12;;;;;;;6.47;3.58;;;;;;;;;;5060565;28;20100;-78
2023/07/24 06:00:39;;;;;;;6.35;3.33;;;;;;;;;;5035455;28;20060;-78
2023/07/24 06:03:05;;;;;;;7.28;3.63;;;;;;;;;;5052328;28;20537;-77
2023/07/24 06:05:34;;;;;;;6.47;3.33;;;;;;;;;;5052280;28;20045;-78
2023/07/24 06:08:01;;;;;;;5.95;2.92;;;;;;;;;;5053938;28;20040;-77
2023/07/24 06:10:27;;;;;;;6.15;3.40;;;;;;;;;;5032671;28;20075;-78
2023/07/24 06:12:54;;;;;;;7.18;3.58;;;;;;;;;;5050437;28;20055;-78
2023/07/24 06:15:21;;;;;;;6.03;3.10;;;;;;;;;;5049850;28;20045;-78
2023/07/24 06:17:47;;;;;;;6.82;3.47;;;;;;;;;;5049952;28;20041;-79
2023/07/24 06:20:17;;;;;;;6.15;3.50;;;;;;;;;;5050612;28;20043;-78
2023/07/24 06:22:43;;;;;;;5.88;3.30;;;;;;;;;;5051310;28;20045;-79
2023/07/24 06:25:10;;;;;;;10.05;3.50;;;;;;;;;;5030954;28;21792;-79
2023/07/24 06:27:37;;;;;;;6.93;3.67;;;;;;;;;;5030295;28;20122;-78
2023/07/24 06:30:04;;;;;;;9.05;3.33;;;;;;;;;;5048665;28;20511;-79
2023/07/24 06:32:41;;;;;;;5.57;3.20;;;;;;;;;;5031580;28;20053;-77
2023/07/24 06:35:08;;;;;;;6.20;3.40;;;;;;;;;;5050319;28;20045;-78
2023/07/24 06:37:34;;;;;;;6.82;3.60;;;;;;;;;;5051851;28;20052;-79
2023/07/24 06:40:01;;;;;;;7.38;3.70;;;;;;;;;;5056830;28;20044;-78
2023/07/24 06:42:29;;;;;;;5.60;3.50;;;;;;;;;;5050292;28;20049;-79
2023/07/24 06:44:55;;;;;;;7.00;3.75;;;;;;;;;;5049464;28;20051;-77
2023/07/24 06:47:22;;;;;;;8.85;3.75;;;;;;;;;;5019500;28;20500;-76
2023/07/24 06:49:48;;;;;;;8.43;3.97;;;;;;;;;;5030647;28;20129;-78
2023/07/24 06:52:15;;;;;;;6.72;3.45;;;;;;;;;;5031234;28;20042;-78
2023/07/24 06:54:42;;;;;;;6.90;3.88;;;;;;;;;;5054227;28;20041;-77
2023/07/24 06:57:08;;;;;;;7.97;3.83;;;;;;;;;;5045612;28;20069;-77
2023/07/24 06:59:35;;;;;;;6.55;3.03;;;;;;;;;;5053967;28;20068;-78
2023/07/24 07:02:02;;;;;;;7.13;3.70;;;;;;;;;;5050368;28;20640;-78
2023/07/24 07:04:31;;;;;;;6.40;3.67;;;;;;;;;;5048337;28;20068;-79
2023/07/24 07:06:58;;;;;;;6.32;3.53;;;;;;;;;;5025588;28;20037;-77
2023/07/24 07:09:24;;;;;;;6.05;3.45;;;;;;;;;;5047137;28;20055;-77
2023/07/24 07:11:51;;;;;;;9.18;3.90;;;;;;;;;;5046448;28;20036;-78
2023/07/24 07:14:17;;;;;;;7.82;3.80;;;;;;;;;;5043409;28;20091;-79
2023/07/24 07:16:47;;;;;;;7.30;3.83;;;;;;;;;;5046416;28;20043;-77
2023/07/24 07:19:14;;;;;;;7.25;3.78;;;;;;;;;;5049179;28;20091;-77
2023/07/24 07:21:40;;;;;;;6.22;3.70;;;;;;;;;;5046143;28;20045;-78
2023/07/24 07:24:07;;;;;;;6.90;3.85;;;;;;;;;;5045385;28;20079;-75
2023/07/24 07:26:33;;;;;;;7.38;3.80;;;;;;;;;;5043939;28;20072;-78
2023/07/24 07:29:00;;;;;;;5.93;3.45;;;;;;;;;;5045230;28;20049;-78
2023/07/24 07:31:27;;;;;;;8.25;3.65;;;;;;;;;;5028640;28;20045;-78
2023/07/24 07:33:53;;;;;;;7.78;3.90;;;;;;;;;;5049179;28;20041;-80
2023/07/24 07:36:22;;;;;;;7.07;3.92;;;;;;;;;;5046153;28;20111;-79
2023/07/24 07:38:49;;;;;;;6.85;3.78;;;;;;;;;;5051767;28;20492;-79
2023/07/24 07:41:15;;;;;;;5.25;3.38;;;;;;;;;;5041667;28;20043;-78
2023/07/24 07:43:42;;;;;;;9.18;3.90;;;;;;;;;;5072314;28;20049;-78
2023/07/24 07:46:09;;;;;;;7.55;3.78;;;;;;;;;;5072526;28;20045;-78
2023/07/24 07:48:35;;;;;;;6.03;3.45;;;;;;;;;;5057651;28;20049;-78
2023/07/24 07:51:02;;;;;;;10.10;4.57;;;;;;;;;;5048478;28;20418;-79
2023/07/24 07:53:29;;;;;;;7.60;4.30;;;;;;;;;;5031676;28;20047;-79
2023/07/24 07:56:01;;;;;;;8.48;4.13;;;;;;;;;;5029165;28;20115;-78
2023/07/24 07:58:28;;;;;;;11.25;4.78;;;;;;;;;;5046447;28;20707;-77
2023/07/24 08:00:55;;;;;;;7.55;4.20;;;;;;;;;;5027030;28;20053;-75
2023/07/24 08:03:21;;;;;;;9.80;4.15;;;;;;;;;;5027696;28;20049;-78
2023/07/24 08:05:48;;;;;;;10.07;4.32;;;;;;;;;;5019853;28;20046;-76
2023/07/24 08:08:15;;;;;;;10.85;4.25;;;;;;;;;;5023870;28;20038;-78
2023/07/24 08:10:41;;;;;;;9.88;4.68;;;;;;;;;;5027532;28;20045;-80
2023/07/24 08:13:08;;;;;;;10.95;4.93;;;;;;;;;;5028528;28;20507;-78
2023/07/24 08:15:35;;;;;;;10.82;4.53;;;;;;;;;;5032362;28;20146;-78
2023/07/24 08:18:06;;;;;;;11.82;4.85;;;;;;;;;;5032082;28;20056;-77
2023/07/24 08:20:35;;;;;;;9.13;4.72;;;;;;;;;;5029706;28;20056;-77
2023/07/24 08:23:01;;;;;;;9.85;4.70;;;;;;;;;;5030899;28;20045;-80
2023/07/24 08:25:28;;;;;;;7.70;3.80;;;;;;;;;;5032826;28;20071;-77
2023/07/24 08:27:55;;;;;;;8.43;4.20;;;;;;;;;;5051917;28;20048;-79
2023/07/24 08:30:31;;;;;;;6.68;4.00;;;;;;;;;;5035671;28;20710;-78
2023/07/24 08:32:59;;;;;;;6.40;3.65;;;;;;;;;;5035172;28;20041;-78
2023/07/24 08:35:26;;;;;;;7.45;3.78;;;;;;;;;;5049972;28;20073;-79
2023/07/24 08:37:52;;;;;;;7.95;4.15;;;;;;;;;;5055943;28;20286;-78
2023/07/24 08:40:19;;;;;;;8.45;4.10;;;;;;;;;;5048427;28;20128;-80
2023/07/24 08:42:48;;;;;;;11.02;4.60;;;;;;;;;;5050903;28;20037;-78
2023/07/24 08:45:15;;;;;;;8.45;3.85;;;;;;;;;;5051251;28;20047;-78
2023/07/24 08:47:46;;;;;;;6.93;4.32;;;;;;;;;;5050766;28;20139;-77
2023/07/24 08:50:15;;;;;;;7.13;4.20;;;;;;;;;;5035768;28;20182;-78
2023/07/24 08:52:46;;;;;;;7.70;4.50;;;;;;;;;;5042550;28;20042;-80
2023/07/24 08:55:13;;;;;;;8.95;4.38;;;;;;;;;;5053184;28;20067;-77
2023/07/24 08:57:40;;;;;;;7.35;4.13;;;;;;;;;;5049901;28;20037;-77
2023/07/24 09:00:07;;;;;;;6.88;3.80;;;;;;;;;;5052294;28;20073;-78
2023/07/24 09:02:36;;;;;;;5.90;3.50;;;;;;;;;;5051687;28;20768;-77
2023/07/24 09:05:03;;;;;;;8.48;4.03;;;;;;;;;;5054849;28;20041;-78
2023/07/24 09:07:30;;;;;;;7.28;3.70;;;;;;;;;;5051642;28;20049;-78
2023/07/24 09:09:58;;;;;;;8.00;3.72;;;;;;;;;;5054292;28;20060;-78
2023/07/24 09:12:24;;;;;;;5.43;3.22;;;;;;;;;;5022654;28;20045;-78
2023/07/24 09:15:02;;;;;;;8.18;3.70;;;;;;;;;;5015217;28;20471;-78
2023/07/24 09:17:29;;;;;;;6.90;3.95;;;;;;;;;;5029531;28;20049;-78
2023/07/24 09:19:59;;;;;;;6.00;3.63;;;;;;;;;;5029944;28;20218;-78
2023/07/24 09:22:26;;;;;;;7.38;4.10;;;;;;;;;;5009427;28;20707;-78
2023/07/24 09:24:54;;;;;;;8.65;4.10;;;;;;;;;;5029597;28;20041;-78
2023/07/24 09:27:24;;;;;;;8.48;3.88;;;;;;;;;;5029810;28;20046;-78
2023/07/24 09:29:50;;;;;;;6.88;3.70;;;;;;;;;;5036368;28;20040;-77
2023/07/24 09:32:21;;;;;;;6.82;3.15;;;;;;;;;;5031339;28;20120;-79
2023/07/24 09:34:50;;;;;;;7.07;3.53;;;;;;;;;;5033967;28;20041;-80
2023/07/24 09:37:23;;;;;;;9.40;3.90;;;;;;;;;;5052010;28;20507;-79
2023/07/24 09:39:50;;;;;;;5.38;3.30;;;;;;;;;;5051378;28;20087;-78
2023/07/24 09:42:27;;;;;;;7.13;3.65;;;;;;;;;;5042480;28;20045;-78
2023/07/24 09:44:53;;;;;;;4.82;2.83;;;;;;;;;;5045177;28;20056;-78
2023/07/24 09:47:20;;;;;;;6.68;3.28;;;;;;;;;;5052985;28;20057;-80
2023/07/24 09:49:51;;;;;;;6.53;2.90;;;;;;;;;;5055492;28;20041;-79
2023/07/24 09:52:18;;;;;;;6.50;3.50;;;;;;;;;;5046351;28;20105;-78
2023/07/24 09:55:05;;;;;;;6.60;3.47;;;;;;;;;;5049038;28;20033;-78
2023/07/24 09:57:32;;;;;;;9.07;3.83;;;;;;;;;;5032443;28;20782;-79
2023/07/24 09:59:59;;;;;;;7.35;4.30;;;;;;;;;;5036080;28;20053;-80
2023/07/24 10:02:26;;;;;;;8.27;4.25;;;;;;;;;;5044648;28;20045;-78
2023/07/24 10:04:53;;;;;;;9.98;4.82;;;;;;;;;;5052176;28;20384;-79
2023/07/24 10:07:22;;;;;;;10.27;4.50;;;;;;;;;;5043402;28;20057;-79
2023/07/24 10:09:52;;;;;;;7.78;4.57;;;;;;;;;;5041937;28;20060;-79
2023/07/24 10:12:19;;;;;;;8.48;4.63;;;;;;;;;;5041428;28;20090;-79
2023/07/24 10:14:46;;;;;;;8.57;4.53;;;;;;;;;;5050877;28;20041;-80
2023/07/24 10:17:13;;;;;;;7.80;4.50;;;;;;;;;;5053621;28;20048;-80
2023/07/24 10:19:41;;;;;;;8.65;4.53;;;;;;;;;;5034988;28;20048;-78
2023/07/24 10:22:09;;;;;;;11.35;5.15;;;;;;;;;;5020975;28;20046;-80
2023/07/24 10:24:36;;;;;;;9.07;4.57;;;;;;;;;;5023405;28;20455;-79
2023/07/24 10:27:08;;;;;;;9.35;5.20;;;;;;;;;;5031792;28;20057;-80
2023/07/24 10:29:35;;;;;;;8.75;4.90;;;;;;;;;;5025531;28;20060;-79
2023/07/24 10:32:02;;;;;;;8.93;4.93;;;;;;;;;;5031993;28;20466;-78
2023/07/24 10:34:36;;;;;;;7.95;5.07;;;;;;;;;;5053257;28;20128;-79
2023/07/24 10:37:03;;;;;;;8.15;5.03;;;;;;;;;;5052452;28;20115;-79
2023/07/24 10:39:37;;;;;;;8.80;5.05;;;;;;;;;;5027077;28;20041;-77
2023/07/24 10:42:10;;;;;;;9.43;5.40;;;;;;;;;;5048551;28;20059;-79
2023/07/24 10:44:37;;;;;;;11.18;5.43;;;;;;;;;;5054535;28;20087;-79
2023/07/24 10:47:04;;;;;;;8.40;5.05;;;;;;;;;;5040471;28;20048;-78
2023/07/24 10:49:30;;;;;;;9.30;5.43;;;;;;;;;;5030740;28;20060;-78
2023/07/24 10:51:58;;;;;;;12.90;5.90;;;;;;;;;;5038113;28;20044;-78
2023/07/24 10:54:24;;;;;;;10.07;5.85;;;;;;;;;;5029009;28;20087;-78
2023/07/24 10:57:00;;;;;;;7.68;5.15;;;;;;;;;;5043379;28;20064;-81
2023/07/24 10:59:39;;;;;;;9.67;5.23;;;;;;;;;;5053821;28;20104;-76
2023/07/24 11:02:07;;;;;;;8.07;5.15;;;;;;;;;;5053321;28;20345;-78
2023/07/24 11:04:34;;;;;;;9.60;5.30;;;;;;;;;;5034867;28;20108;-77
2023/07/24 11:07:01;;;;;;;10.10;5.57;;;;;;;;;;5029571;28;20045;-76
2023/07/24 11:09:34;;;;;;;9.70;5.25;;;;;;;;;;5046286;28;20045;-77
2023/07/24 11:12:08;;;;;;;10.77;5.28;;;;;;;;;;5050688;28;20044;-79
2023/07/24 11:14:35;;;;;;;9.23;5.28;;;;;;;;;;5045844;28;20045;-78
2023/07/24 11:17:01;;;;;;;8.57;5.25;;;;;;;;;;5037597;28;20053;-77
2023/07/24 11:19:28;;;;;;;9.73;5.30;;;;;;;;;;5047774;28;20511;-78
2023/07/24 11:21:55;;;;;;;10.10;5.40;;;;;;;;;;5048981;28;20045;-78
2023/07/24 11:24:21;;;;;;;12.77;5.78;;;;;;;;;;5034404;28;20054;-79
2023/07/24 11:26:51;;;;;;;9.60;5.63;;;;;;;;;;5042333;28;20442;-78
2023/07/24 11:29:17;;;;;;;9.85;5.43;;;;;;;;;;5050179;28;20391;-77
2023/07/24 11:31:44;;;;;;;10.48;5.60;;;;;;;;;;5040915;28;20468;-79
2023/07/24 11:34:11;;;;;;;9.32;5.25;;;;;;;;;;5050594;28;20049;-78
2023/07/24 11:36:37;;;;;;;10.15;5.55;;;;;;;;;;5048289;28;20087;-77
2023/07/24 11:39:04;;;;;;;10.88;5.65;;;;;;;;;;5050474;28;20499;-79
2023/07/24 11:41:31;;;;;;;10.20;5.72;;;;;;;;;;5049477;28;20073;-79
2023/07/24 11:43:58;;;;;;;14.77;6.30;;;;;;;;;;5045752;28;20041;-78
2023/07/24 11:46:25;;;;;;;12.60;6.15;;;;;;;;;;5047302;28;20067;-78
2023/07/24 11:48:53;;;;;;;15.20;5.90;;;;;;;;;;5032516;28;20067;-77
2023/07/24 11:51:20;;;;;;;10.52;5.18;;;;;;;;;;5050672;28;20053;-79
2023/07/24 11:53:48;;;;;;;8.30;4.88;;;;;;;;;;5029943;28;20038;-79
2023/07/24 11:56:15;;;;;;;10.23;5.13;;;;;;;;;;5040702;28;20045;-79
2023/07/24 11:58:42;;;;;;;9.40;5.38;;;;;;;;;;5045243;28;20519;-78
2023/07/24 12:01:08;;;;;;;13.43;5.72;;;;;;;;;;5051689;28;20364;-80
2023/07/24 12:03:36;;;;;;;11.45;5.68;;;;;;;;;;5050583;28;20462;-79
2023/07/24 12:06:02;;;;;;;12.75;5.72;;;;;;;;;;5049234;28;20075;-79
2023/07/24 12:08:33;;;;;;;13.07;5.50;;;;;;;;;;5019458;28;20045;-80
2023/07/24 12:11:00;;;;;;;14.55;6.18;;;;;;;;;;5033167;28;20124;-80
2023/07/24 12:13:28;;;;;;;13.70;6.32;;;;;;;;;;5034517;28;20174;-79
2023/07/24 12:15:54;;;;;;;16.23;6.82;;;;;;;;;;5051795;28;20045;-80
2023/07/24 12:18:22;;;;;;;10.85;6.15;;;;;;;;;;5044616;28;20049;-79
2023/07/24 12:20:48;;;;;;;9.57;5.28;;;;;;;;;;5040970;28;20045;-79
2023/07/24 12:23:16;;;;;;;8.63;4.85;;;;;;;;;;5045209;28;20052;-79
2023/07/24 12:25:44;;;;;;;9.77;4.85;;;;;;;;;;5032268;28;20056;-78
2023/07/24 12:28:14;;;;;;;10.60;5.03;;;;;;;;;;5051168;28;20053;-79
2023/07/24 12:30:40;;;;;;;7.03;4.30;;;;;;;;;;5043277;28;20056;-78
2023/07/24 12:33:07;;;;;;;6.50;4.00;;;;;;;;;;5051085;28;20048;-79
2023/07/24 12:35:34;;;;;;;7.18;3.88;;;;;;;;;;5031900;28;20054;-77
2023/07/24 12:38:00;;;;;;;6.10;3.83;;;;;;;;;;5032618;28;20507;-78
2023/07/24 12:40:27;;;;;;;6.70;3.83;;;;;;;;;;5043098;28;20503;-79
2023/07/24 12:42:54;;;;;;;6.22;3.20;;;;;;;;;;5031150;28;20045;-79
2023/07/24 12:45:20;;;;;;;4.97;3.05;;;;;;;;;;5022175;28;20081;-79
2023/07/24 12:47:47;;;;;;;6.75;3.13;;;;;;;;;;5027963;28;20057;-79
2023/07/24 12:50:13;;;;;;;4.50;3.00;;;;;;;;;;5025575;28;20095;-79
2023/07/24 12:52:40;;;;;;;6.68;3.38;;;;;;;;;;5004763;28;20050;-78
2023/07/24 12:55:08;;;;;;;4.40;2.88;;;;;;;;;;5023032;28;20068;-79
2023/07/24 12:57:34;;;;;;;4.13;3.13;;;;;;;;;;5005225;28;20046;-79
2023/07/24 13:00:01;;;;;;;5.15;2.88;;;;;;;;;;5012964;28;20072;-79
2023/07/24 13:02:28;;;;;;;5.80;3.10;;;;;;;;;;5023482;28;20639;-80
2023/07/24 13:05:00;;;;;;;5.38;3.13;;;;;;;;;;5009741;28;20053;-78
2023/07/24 13:07:28;;;;;;;4.68;3.05;;;;;;;;;;5054522;28;20052;-78
2023/07/24 13:09:55;;;;;;;7.80;3.38;;;;;;;;;;5036887;28;20041;-78
2023/07/24 13:12:21;;;;;;;7.00;3.90;;;;;;;;;;5046437;28;21881;-78
2023/07/24 13:14:48;;;;;;;5.35;3.08;;;;;;;;;;5050465;28;20038;-80
2023/07/24 13:17:15;;;;;;;6.65;3.28;;;;;;;;;;5034978;28;20048;-78
2023/07/24 13:19:41;;;;;;;6.10;3.15;;;;;;;;;;5052904;28;20128;-79
2023/07/24 13:22:08;;;;;;;5.15;3.15;;;;;;;;;;5053828;28;20114;-78
2023/07/24 13:24:34;;;;;;;7.95;3.63;;;;;;;;;;5045759;28;20052;-79
2023/07/24 13:27:01;;;;;;;5.85;3.38;;;;;;;;;;5019220;28;20044;-78
2023/07/24 13:29:27;;;;;;;4.72;3.35;;;;;;;;;;5054458;28;20561;-78
2023/07/24 13:31:54;;;;;;;7.43;3.47;;;;;;;;;;5053188;28;20052;-78
2023/07/24 13:34:21;;;;;;;5.95;3.63;;;;;;;;;;5047094;28;20041;-79
2023/07/24 13:36:48;;;;;;;6.50;3.63;;;;;;;;;;5052613;28;20491;-79
2023/07/24 13:39:14;;;;;;;6.00;3.47;;;;;;;;;;5049483;28;20120;-79
2023/07/24 13:41:41;;;;;;;7.15;3.85;;;;;;;;;;5050816;28;20040;-79
2023/07/24 13:44:08;;;;;;;6.93;3.80;;;;;;;;;;5027127;28;20128;-79
2023/07/24 13:46:35;;;;;;;6.07;3.88;;;;;;;;;;5031445;28;20412;-78
2023/07/24 13:49:05;;;;;;;7.10;4.03;;;;;;;;;;5021391;28;20076;-78
2023/07/24 13:51:32;;;;;;;7.22;3.95;;;;;;;;;;5036143;28;20072;-79
2023/07/24 13:53:59;;;;;;;8.13;4.22;;;;;;;;;;5033953;28;20583;-78
2023/07/24 13:56:29;;;;;;;7.05;3.85;;;;;;;;;;5012121;28;20120;-78
2023/07/24 13:58:56;;;;;;;11.73;4.40;;;;;;;;;;5032121;28;20136;-79
2023/07/24 14:01:22;;;;;;;6.95;4.15;;;;;;;;;;5024259;28;20054;-80
2023/07/24 14:03:49;;;;;;;7.88;4.57;;;;;;;;;;5012788;28;20046;-78
2023/07/24 14:06:16;;;;;;;7.55;4.00;;;;;;;;;;5018232;28;20045;-80
2023/07/24 14:08:45;;;;;;;10.82;4.47;;;;;;;;;;5021663;28;20325;-79
2023/07/24 14:11:12;;;;;;;7.63;4.28;;;;;;;;;;5025423;28;20515;-79
2023/07/24 14:13:38;;;;;;;8.98;4.80;;;;;;;;;;5025083;28;20045;-79
2023/07/24 14:16:05;;;;;;;9.30;5.03;;;;;;;;;;5032821;28;20196;-80
2023/07/24 14:18:31;;;;;;;7.78;4.53;;;;;;;;;;5032793;28;20041;-79
2023/07/24 14:20:59;;;;;;;10.32;5.03;;;;;;;;;;5033932;28;20057;-80
2023/07/24 14:23:26;;;;;;;8.85;4.50;;;;;;;;;;5023836;28;20515;-78
2023/07/24 14:25:52;;;;;;;8.45;5.10;;;;;;;;;;5023506;28;20053;-80
2023/07/24 14:28:19;;;;;;;9.27;5.25;;;;;;;;;;5008931;28;20045;-78
2023/07/24 14:30:46;;;;;;;8.35;4.90;;;;;;;;;;5032604;28;20061;-80
2023/07/24 14:33:12;;;;;;;10.65;5.25;;;;;;;;;;5013130;28;20095;-79
2023/07/24 14:35:39;;;;;;;10.63;5.78;;;;;;;;;;5033150;28;20041;-78
2023/07/24 14:38:05;;;;;;;10.88;5.13;;;;;;;;;;5035534;28;20052;-79
2023/07/24 14:40:32;;;;;;;8.45;5.32;;;;;;;;;;5015534;28;20072;-78
2023/07/24 14:42:59;;;;;;;9.13;5.32;;;;;;;;;;5006186;28;20046;-78